createdAt,value
2023-11-20T00:02:11.370Z,96638.59
2023-11-20T00:04:39.637Z,96630.19
2023-11-20T00:07:07.810Z,96634.63
2023-11-20T00:09:36.174Z,96617.59
2023-11-20T00:12:04.892Z,96617.97
2023-11-20T00:14:31.658Z,96619.38
2023-11-20T00:16:58.629Z,96620.03
2023-11-20T00:19:26.877Z,96620.94
2023-11-20T00:21:54.926Z,96621.63
2023-11-20T00:24:22.740Z,96617.97
2023-11-20T00:26:49.505Z,96621.63
2023-11-20T00:29:18.300Z,96614.66
2023-11-20T00:31:46.628Z,96612.56
2023-11-20T00:34:14.888Z,96617.34
2023-11-20T00:36:44.637Z,96621.63
2023-11-20T00:39:12.650Z,96610.97
2023-11-20T00:41:39.485Z,96619.56
2023-11-20T00:44:08.336Z,96625.59
2023-11-20T00:46:35.149Z,96627.50
2023-11-20T00:49:04.007Z,96610.63
2023-11-20T00:51:32.521Z,96632.25
2023-11-20T00:54:00.493Z,96628.28
2023-11-20T00:56:29.337Z,96620.53
2023-11-20T00:58:57.334Z,96615.91
2023-11-20T01:01:25.166Z,96606.53
2023-11-20T01:03:53.365Z,96616.06
2023-11-20T01:06:21.981Z,96590.13
2023-11-20T01:08:49.788Z,96602.75
2023-11-20T01:11:19.338Z,96610.03
2023-11-20T01:13:47.409Z,96569.97
2023-11-20T01:16:15.218Z,96624.03
2023-11-20T01:18:43.264Z,96619.41
2023-11-20T01:21:11.501Z,96602.38
2023-11-20T01:23:38.236Z,96597.00
2023-11-20T01:26:05.016Z,96616.41
2023-11-20T01:28:33.656Z,96611.47
2023-11-20T01:31:01.666Z,96622.13
2023-11-20T01:33:28.585Z,96621.00
2023-11-20T01:35:56.649Z,96618.47
2023-11-20T01:38:24.672Z,96623.41
2023-11-20T01:40:56.134Z,96627.22
2023-11-20T01:43:23.975Z,96621.81
2023-11-20T01:46:00.883Z,96611.66
2023-11-20T01:48:29.010Z,96579.69
2023-11-20T01:50:57.304Z,96606.25
2023-11-20T01:53:24.361Z,96607.69
2023-11-20T01:55:52.237Z,96606.25
2023-11-20T01:58:20.074Z,96605.94
2023-11-20T02:00:47.023Z,96611.31
2023-11-20T02:03:14.069Z,96614.34
2023-11-20T02:05:42.154Z,96609.28
2023-11-20T02:08:10.842Z,96608.78
2023-11-20T02:10:38.167Z,96607.50
2023-11-20T02:13:07.688Z,96588.59
2023-11-20T02:15:35.655Z,96612.91
2023-11-20T02:18:04.574Z,96600.53
2023-11-20T02:20:32.845Z,96601.47
2023-11-20T02:22:59.648Z,96597.38
2023-11-20T02:25:27.674Z,96605.63
2023-11-20T02:28:19.793Z,96583.84
2023-11-20T02:30:48.295Z,96583.03
2023-11-20T02:33:16.513Z,96598.63
2023-11-20T02:35:45.019Z,96598.31
2023-11-20T02:38:12.945Z,96588.16
2023-11-20T02:40:39.663Z,96590.69
2023-11-20T02:43:07.706Z,96587.69
2023-11-20T02:45:36.627Z,96585.28
2023-11-20T02:48:05.405Z,96578.28
2023-11-20T02:50:35.486Z,96579.59
2023-11-20T02:53:03.605Z,96584.03
2023-11-20T02:55:31.616Z,96585.00
2023-11-20T02:58:00.546Z,96581.34
2023-11-20T03:00:27.651Z,96561.47
2023-11-20T03:02:55.888Z,96538.88
2023-11-20T03:05:23.883Z,96553.66
2023-11-20T03:07:52.515Z,96573.72
2023-11-20T03:10:20.170Z,96576.88
2023-11-20T03:12:48.639Z,96577.50
2023-11-20T03:15:16.269Z,96581.63
2023-11-20T03:17:44.237Z,96560.66
2023-11-20T05:34:23.147Z,96546.59
2023-11-20T05:36:51.398Z,96543.09
2023-11-20T05:39:20.333Z,96541.38
2023-11-20T05:41:48.548Z,96545.63
2023-11-20T05:44:16.838Z,96526.91
2023-11-20T05:46:44.825Z,96544.53
2023-11-20T05:49:13.161Z,96544.84
2023-11-20T05:51:40.012Z,96550.88
2023-11-20T05:54:10.332Z,96504.34
2023-11-20T05:56:38.310Z,96540.56
2023-11-20T05:59:15.213Z,96542.16
2023-11-20T06:01:44.315Z,96542.94
2023-11-20T06:04:15.070Z,96526.72
2023-11-20T06:06:43.566Z,96534.38
2023-11-20T06:09:12.147Z,96545.63
2023-11-20T06:11:42.057Z,96539.78
2023-11-20T06:14:09.064Z,96546.44
2023-11-20T06:16:37.202Z,96543.25
2023-11-20T06:19:05.411Z,96521.50
2023-11-20T06:27:38.871Z,96558.69
2023-11-20T06:30:07.748Z,96559.63
2023-11-20T06:32:38.812Z,96558.97
2023-11-20T06:35:09.408Z,96573.31
2023-11-20T06:37:38.002Z,96575.03
2023-11-20T06:40:07.615Z,96578.69
2023-11-20T06:42:35.624Z,96566.59
2023-11-20T06:45:02.715Z,96563.59
2023-11-20T06:47:29.492Z,96549.63
2023-11-20T06:49:56.235Z,96556.75
2023-11-20T06:52:22.986Z,96560.72
2023-11-20T06:54:50.523Z,96553.72
2023-11-20T06:57:17.290Z,96553.72
2023-11-20T06:59:45.767Z,96551.34
2023-11-20T07:02:13.352Z,96523.25
2023-11-20T07:04:46.277Z,96542.00
2023-11-20T07:07:13.196Z,96517.34
2023-11-20T07:09:39.988Z,96557.53
2023-11-20T07:12:07.452Z,96554.84
2023-11-20T07:14:34.211Z,96569.16
2023-11-20T07:17:01.020Z,96545.63
2023-11-20T07:19:32.209Z,96536.72
2023-11-20T07:24:47.421Z,96561.94
2023-11-20T07:27:14.134Z,96566.56
2023-11-20T07:29:42.145Z,96556.88
2023-11-20T07:32:09.029Z,96572.31
2023-11-20T07:34:37.196Z,96565.94
2023-11-20T07:37:04.076Z,96578.63
2023-11-20T07:39:31.071Z,96564.50
2023-11-20T07:41:58.247Z,96540.81
2023-11-20T07:44:24.946Z,96550.69
2023-11-20T07:46:51.805Z,96549.22
2023-11-20T07:49:18.664Z,96554.13
2023-11-20T07:51:45.728Z,96547.13
2023-11-20T07:54:12.574Z,96556.69
2023-11-20T07:56:39.527Z,96556.00
2023-11-20T07:59:06.262Z,96541.41
2023-11-20T08:01:33.013Z,96549.03
2023-11-20T08:03:59.951Z,96562.84
2023-11-20T08:06:26.811Z,96553.28
2023-11-20T08:08:53.690Z,96555.69
2023-11-20T08:11:20.462Z,96556.78
2023-11-20T08:13:47.853Z,96547.44
2023-11-20T08:16:14.791Z,96561.72
2023-11-20T08:18:41.664Z,96557.91
2023-11-20T08:21:08.637Z,96548.69
2023-11-20T08:23:35.526Z,96549.94
2023-11-20T08:26:02.284Z,96542.31
2023-11-20T08:28:29.072Z,96517.88
2023-11-20T08:30:55.864Z,96541.03
2023-11-20T08:33:22.790Z,96538.34
2023-11-20T08:35:49.602Z,96545.63
2023-11-20T08:38:16.367Z,96539.63
2023-11-20T08:40:43.172Z,96546.63
2023-11-20T08:43:10.184Z,96549.78
2023-11-20T08:45:36.982Z,96556.47
2023-11-20T08:48:06.629Z,96558.06
2023-11-20T08:50:33.450Z,96563.59
2023-11-20T08:53:00.255Z,96551.38
2023-11-20T08:55:27.829Z,96553.28
2023-11-20T08:57:54.729Z,96562.03
2023-11-20T09:00:21.758Z,96556.94
2023-11-20T09:02:49.813Z,96529.63
2023-11-20T09:05:16.642Z,96516.44
2023-11-20T09:07:44.202Z,96539.63
2023-11-20T09:10:12.585Z,96561.97
2023-11-20T09:12:45.525Z,96555.78
2023-11-20T09:15:13.193Z,96558.78
2023-11-20T09:17:40.177Z,96543.38
2023-11-20T09:20:07.809Z,96538.94
2023-11-20T09:22:35.251Z,96517.81
2023-11-20T09:25:05.792Z,96550.69
2023-11-20T09:27:33.895Z,96526.88
2023-11-20T09:30:00.954Z,96544.97
2023-11-20T09:32:30.879Z,96541.47
2023-11-20T09:34:58.028Z,96540.69
2023-11-20T09:37:26.251Z,96544.00
2023-11-20T09:39:53.093Z,96545.91
2023-11-20T09:42:24.140Z,96540.16
2023-11-20T09:44:53.692Z,96531.56
2023-11-20T09:47:21.877Z,96522.22
2023-11-20T09:49:49.279Z,96540.31
2023-11-20T09:52:17.059Z,96486.66
2023-11-20T09:54:44.690Z,96524.06
2023-11-20T09:57:11.718Z,96520.13
2023-11-20T09:59:38.988Z,96526.59
2023-11-20T10:02:06.621Z,96510.09
2023-11-20T10:04:34.984Z,96517.09
2023-11-20T10:07:08.471Z,96483.78
2023-11-20T10:09:36.862Z,96521.66
2023-11-20T10:12:05.379Z,96508.78
2023-11-20T10:14:32.148Z,96512.75
2023-11-20T10:16:59.805Z,96507.00
2023-11-20T10:19:26.751Z,96505.28
2023-11-20T10:21:54.619Z,96485.75
2023-11-20T10:24:21.459Z,96500.94
2023-11-20T10:26:48.328Z,96501.22
2023-11-20T10:29:17.352Z,96508.22
2023-11-20T10:31:48.626Z,96465.69
2023-11-20T10:34:18.917Z,96502.03
2023-11-20T10:37:03.620Z,96489.00
2023-11-20T10:39:31.078Z,96472.03
2023-11-20T10:50:26.781Z,96461.47
2023-11-20T10:52:56.199Z,96486.97
2023-11-20T10:55:31.623Z,96475.69
2023-11-20T10:57:59.304Z,96450.44
2023-11-20T11:00:26.654Z,96476.63
2023-11-20T11:03:03.738Z,96487.06
2023-11-20T11:05:47.236Z,96476.38
2023-11-20T11:08:15.751Z,96476.03
2023-11-20T11:10:45.660Z,96465.09
2023-11-20T11:13:13.686Z,96460.25
2023-11-20T11:15:40.741Z,96465.03
2023-11-20T11:18:14.008Z,96461.38
2023-11-20T11:20:43.568Z,96472.16
2023-11-20T11:23:12.998Z,96465.25
2023-11-20T11:26:04.053Z,96467.97
2023-11-20T11:28:31.836Z,96459.25
2023-11-20T11:31:01.720Z,96458.13
2023-11-20T11:33:31.432Z,96469.91
2023-11-20T11:36:17.003Z,96466.84
2023-11-20T11:38:51.356Z,96453.38
2023-11-20T11:41:33.489Z,96458.25
2023-11-20T11:44:07.384Z,96456.81
2023-11-20T11:46:37.767Z,96457.94
2023-11-20T11:49:21.983Z,96458.25
2023-11-20T11:51:50.914Z,96441.13
2023-11-20T11:54:19.063Z,96420.84
2023-11-20T11:57:08.870Z,96440.44
2023-11-20T11:59:43.561Z,96435.81
2023-11-20T12:02:14.445Z,96439.31
2023-11-20T12:04:53.590Z,96440.69
2023-11-20T12:07:41.649Z,96436.06
2023-11-20T12:10:15.278Z,96431.44
2023-11-20T12:12:58.732Z,96426.81
2023-11-20T12:15:37.566Z,96426.81
2023-11-20T12:18:16.400Z,96412.22
2023-11-20T12:20:56.363Z,96417.09
2023-11-20T12:23:35.467Z,96418.56
2023-11-20T12:26:06.576Z,96414.16
2023-11-20T12:28:34.261Z,96415.41
2023-11-20T12:31:05.245Z,96417.31
2023-11-20T12:33:36.669Z,96389.59
2023-11-20T12:36:04.138Z,96416.06
2023-11-20T13:04:19.635Z,96410.56
2023-11-20T13:06:50.815Z,96400.84
2023-11-20T13:09:20.664Z,96402.78
2023-11-20T13:11:48.999Z,96398.94
2023-11-20T13:14:17.263Z,96384.69
2023-11-20T13:16:45.519Z,96387.66
2023-11-20T13:19:15.776Z,96372.81
2023-11-20T13:21:43.714Z,96370.09
2023-11-20T13:24:14.673Z,96387.19
2023-11-20T13:26:45.784Z,96383.09
2023-11-20T13:29:16.806Z,96370.09
2023-11-20T13:31:46.962Z,96372.50
2023-11-20T13:39:25.829Z,96388.91
2023-11-20T13:42:16.060Z,96371.28
2023-11-20T13:44:43.342Z,96387.88
2023-11-20T13:47:19.593Z,96383.03
2023-11-20T13:49:46.381Z,96358.81
2023-11-20T13:52:13.114Z,96384.28
2023-11-20T13:54:49.108Z,96388.91
2023-11-20T13:57:15.859Z,96352.28
2023-11-20T13:59:46.010Z,96389.81
2023-11-20T14:02:14.605Z,96371.50
2023-11-20T14:04:42.898Z,96369.13
2023-11-20T14:07:14.922Z,96389.56
2023-11-20T14:09:44.931Z,96401.31
2023-11-20T14:12:13.347Z,96395.78
2023-11-20T14:14:46.356Z,96372.81
2023-11-20T14:17:16.558Z,96395.44
2023-11-20T14:19:44.378Z,96392.16
2023-11-20T14:22:12.200Z,96386.41
2023-11-20T14:24:42.741Z,96391.16
2023-11-20T14:27:10.834Z,96354.41
2023-11-20T14:29:38.593Z,96355.19
2023-11-20T14:32:06.606Z,96386.06
2023-11-20T14:34:34.496Z,96383.38
2023-11-20T14:37:02.386Z,96380.19
2023-11-20T14:39:30.255Z,96386.41
2023-11-20T14:41:58.873Z,96377.94
2023-11-20T14:44:28.238Z,96381.91
2023-11-20T14:46:56.400Z,96375.69
2023-11-20T14:49:26.789Z,96367.13
2023-11-20T14:51:54.905Z,96363.81
2023-11-20T14:54:23.018Z,96374.13
2023-11-20T14:56:50.954Z,96375.25
2023-11-20T14:59:21.372Z,96378.41
2023-11-20T15:01:52.644Z,96375.34
2023-11-20T15:04:21.330Z,96377.75
2023-11-20T15:06:49.631Z,96375.81
2023-11-20T15:09:16.372Z,96376.94
2023-11-20T15:11:43.147Z,96375.16
2023-11-20T15:14:10.051Z,96376.75
2023-11-20T15:16:36.927Z,96372.44
2023-11-20T15:19:03.871Z,96376.06
2023-11-20T15:21:30.760Z,96371.78
2023-11-20T15:23:58.201Z,96370.50
2023-11-20T15:26:25.418Z,96368.28
2023-11-20T15:28:52.210Z,96373.69
2023-11-20T15:31:19.048Z,96367.59
2023-11-20T15:33:45.978Z,96372.69
2023-11-20T15:36:13.266Z,96367.25
2023-11-20T15:38:40.036Z,96373.59
2023-11-20T15:41:08.300Z,96380.13
2023-11-20T15:43:35.155Z,96368.72
2023-11-20T15:46:02.002Z,96380.13
2023-11-20T15:48:28.793Z,96372.00
2023-11-20T15:50:55.656Z,96376.66
2023-11-20T15:53:23.266Z,96378.56
2023-11-20T15:55:50.994Z,96384.13
2023-11-20T15:58:17.734Z,96391.56
2023-11-20T16:00:44.478Z,96390.00
2023-11-20T16:03:13.169Z,96381.06
2023-11-20T16:05:39.950Z,96399.38
2023-11-20T16:08:06.703Z,96396.19
2023-11-20T16:10:33.494Z,96386.47
2023-11-20T16:13:02.483Z,96393.59
2023-11-20T16:15:29.273Z,96377.31
2023-11-20T16:17:56.187Z,96386.47
2023-11-20T16:20:23.036Z,96399.69
2023-11-20T16:22:49.814Z,96347.47
2023-11-20T16:25:17.683Z,96360.56
2023-11-20T16:27:44.869Z,96407.50
2023-11-20T16:30:12.012Z,96405.25
2023-11-20T16:32:38.765Z,96402.75
2023-11-20T16:35:07.341Z,96399.25
2023-11-20T16:37:34.206Z,96382.16
2023-11-20T16:40:01.061Z,96399.91
2023-11-20T16:42:30.114Z,96394.81
2023-11-20T16:44:56.894Z,96403.09
2023-11-20T16:47:23.782Z,96383.63
2023-11-20T16:49:50.524Z,96406.56
2023-11-20T16:52:17.363Z,96404.44
2023-11-20T16:54:44.225Z,96397.53
2023-11-20T16:57:12.285Z,96407.50
2023-11-20T16:59:39.062Z,96395.41
2023-11-20T17:02:05.857Z,96399.38
2023-11-20T17:04:32.690Z,96402.84
2023-11-20T17:06:59.520Z,96410.53
2023-11-20T17:09:29.698Z,96396.41
2023-11-20T17:11:56.404Z,96410.97
2023-11-20T17:14:23.590Z,96409.06
2023-11-20T17:16:50.473Z,96391.78
2023-11-20T17:19:17.321Z,96397.97
2023-11-20T17:21:44.615Z,96405.09
2023-11-20T17:24:12.138Z,96405.91
2023-11-20T17:26:39.826Z,96379.00
2023-11-20T17:29:07.550Z,96404.66
2023-11-20T17:31:34.873Z,96384.88
2023-11-20T17:34:05.813Z,96405.09
2023-11-20T17:36:37.252Z,96415.94
2023-11-20T17:39:05.092Z,96412.78
2023-11-20T17:41:32.009Z,96414.69
2023-11-20T17:43:58.861Z,96416.75
2023-11-20T17:46:26.135Z,96400.84
2023-11-20T17:48:52.881Z,96407.50
2023-11-20T17:51:20.268Z,96404.97
2023-11-20T17:53:46.991Z,96422.16
2023-11-20T17:56:13.765Z,96399.91
2023-11-20T17:58:40.504Z,96401.16
2023-11-20T18:01:16.939Z,96401.63
2023-11-20T18:03:47.051Z,96408.72
2023-11-20T18:06:13.995Z,96398.91
2023-11-20T18:08:40.769Z,96400.03
2023-11-20T18:11:08.780Z,96404.31
2023-11-20T18:13:37.034Z,96405.91
2023-11-20T18:16:05.514Z,96401.97
2023-11-20T18:18:33.734Z,96391.53
2023-11-20T18:21:01.579Z,96398.78
2023-11-20T18:23:29.854Z,96400.22
2023-11-20T18:25:58.230Z,96395.63
2023-11-20T18:28:26.029Z,96367.78
2023-11-20T18:30:55.952Z,96389.16
2023-11-20T18:33:29.110Z,96401.16
2023-11-20T18:35:56.880Z,96391.22
2023-11-20T18:38:24.652Z,96400.38
2023-11-20T18:40:54.586Z,96405.78
2023-11-20T18:43:23.791Z,96403.19
2023-11-20T18:45:51.535Z,96389.53
2023-11-20T18:48:19.816Z,96398.13
2023-11-20T18:50:49.636Z,96396.19
2023-11-20T18:53:17.977Z,96398.25
2023-11-20T18:55:55.088Z,96403.19
2023-11-20T18:58:23.536Z,96398.25
2023-11-20T19:00:50.305Z,96404.13
2023-11-20T19:03:17.123Z,96397.78
2023-11-20T19:05:47.782Z,96412.41
2023-11-20T19:08:14.533Z,96406.50
2023-11-20T19:10:42.184Z,96412.75
2023-11-20T19:13:10.642Z,96413.97
2023-11-20T19:15:39.162Z,96399.19
2023-11-20T19:18:06.106Z,96382.38
2023-11-20T19:20:33.159Z,96399.19
2023-11-20T19:22:59.959Z,96384.91
2023-11-20T19:25:30.832Z,96414.91
2023-11-20T19:27:59.942Z,96377.44
2023-11-20T19:30:30.164Z,96412.50
2023-11-20T19:33:00.741Z,96398.63
2023-11-20T19:35:30.374Z,96389.66
2023-11-20T19:38:01.564Z,96408.66
2023-11-20T19:40:31.241Z,96411.38
2023-11-20T19:42:59.119Z,96415.00
2023-11-20T19:45:30.386Z,96415.69
2023-11-20T19:47:58.771Z,96377.66
2023-11-20T19:50:26.881Z,96417.63
2023-11-20T19:52:55.043Z,96420.44
2023-11-20T19:55:22.907Z,96423.59
2023-11-20T19:57:49.763Z,96418.50
2023-11-20T20:00:18.770Z,96421.56
2023-11-20T20:02:48.599Z,96406.31
2023-11-20T20:05:30.537Z,96423.25
2023-11-20T20:08:01.480Z,96420.91
2023-11-20T20:10:36.341Z,96434.44
2023-11-20T20:13:12.277Z,96425.50
2023-11-20T20:15:43.668Z,96400.03
2023-11-20T20:18:14.185Z,96432.06
2023-11-20T20:20:42.293Z,96403.84
2023-11-20T20:23:10.113Z,96430.81
2023-11-20T20:25:38.265Z,96437.00
2023-11-20T20:28:15.963Z,96433.72
2023-11-20T20:30:42.752Z,96444.38
2023-11-20T20:33:09.937Z,96447.06
2023-11-20T20:35:40.176Z,96447.41
2023-11-20T20:38:08.165Z,96444.25
2023-11-20T20:40:36.159Z,96433.13
2023-11-20T20:43:05.087Z,96450.44
2023-11-20T20:45:33.045Z,96448.75
2023-11-20T20:48:03.767Z,96445.41
2023-11-20T20:50:35.372Z,96420.75
2023-11-20T20:53:03.373Z,96455.59
2023-11-20T20:55:31.267Z,96448.59
2023-11-20T20:58:03.152Z,96452.44
2023-11-20T21:00:37.130Z,96453.88
2023-11-20T21:03:04.752Z,96427.75
2023-11-20T21:05:31.771Z,96450.56
2023-11-20T21:08:08.376Z,96454.09
2023-11-20T21:10:39.402Z,96439.28
2023-11-20T21:13:09.681Z,96446.75
2023-11-20T21:15:37.623Z,96459.16
2023-11-20T21:18:05.750Z,96444.25
2023-11-20T21:20:34.253Z,96454.75
2023-11-20T21:23:02.119Z,96450.13
2023-11-20T21:25:29.984Z,96401.34
2023-11-20T21:27:58.704Z,96432.22
2023-11-20T21:30:27.049Z,96450.34
2023-11-20T21:32:55.383Z,96455.09
2023-11-20T21:35:23.878Z,96463.66
2023-11-20T21:37:52.917Z,96459.25
2023-11-20T21:40:20.355Z,96465.94
2023-11-20T21:42:48.520Z,96474.06
2023-11-20T21:45:17.782Z,96458.31
2023-11-20T21:47:45.583Z,96470.41
2023-11-20T21:50:14.501Z,96471.72
2023-11-20T21:52:43.809Z,96472.84
2023-11-20T21:55:11.861Z,96477.81
2023-11-20T21:57:39.830Z,96482.91
2023-11-20T22:00:08.273Z,96484.03
2023-11-20T22:02:38.575Z,96478.94
2023-11-20T22:05:07.618Z,96479.63
2023-11-20T22:07:35.414Z,96453.78
2023-11-20T22:10:05.887Z,96476.44
2023-11-20T22:12:33.877Z,96469.44
2023-11-20T22:15:01.925Z,96475.97
2023-11-20T22:17:30.364Z,96467.03
2023-11-20T22:19:58.529Z,96461.03
2023-11-20T22:22:26.935Z,96474.03
2023-11-20T22:24:54.786Z,96463.56
2023-11-20T22:27:22.621Z,96442.97
2023-11-20T22:29:50.414Z,96471.34
2023-11-20T22:32:18.837Z,96457.38
2023-11-20T22:34:50.035Z,96455.91
2023-11-20T22:37:23.143Z,96447.84
2023-11-20T22:39:50.834Z,96468.31
2023-11-20T22:42:18.998Z,96437.72
2023-11-20T22:44:46.869Z,96461.19
2023-11-20T22:47:13.657Z,96440.91
2023-11-20T22:49:42.079Z,96438.53
2023-11-20T22:52:14.303Z,96461.97
2023-11-20T22:54:43.906Z,96472.81
2023-11-20T22:57:13.136Z,96448.25
2023-11-20T22:59:42.299Z,96463.28
2023-11-20T23:02:10.547Z,96468.69
2023-11-20T23:04:38.577Z,96473.44
2023-11-20T23:07:06.915Z,96481.09
2023-11-20T23:09:34.869Z,96482.03
2023-11-20T23:12:02.889Z,96475.84
2023-11-20T23:14:32.521Z,96475.38
2023-11-20T23:17:00.604Z,96471.41
2023-11-20T23:19:28.481Z,96472.09
2023-11-20T23:21:56.480Z,96471.28
2023-11-20T23:24:24.284Z,96471.03
2023-11-20T23:26:52.337Z,96446.91
2023-11-20T23:29:20.751Z,96475.91
2023-11-20T23:31:49.026Z,96479.09
2023-11-20T23:34:17.279Z,96477.34
2023-11-20T23:36:45.405Z,96473.84
2023-11-20T23:39:12.220Z,96480.84
2023-11-20T23:41:40.297Z,96476.75
2023-11-20T23:44:08.133Z,96477.69
2023-11-20T23:46:36.804Z,96481.16
2023-11-20T23:49:04.817Z,96481.50
2023-11-20T23:51:32.639Z,96476.44
2023-11-20T23:54:07.113Z,96477.22
2023-11-20T23:56:35.268Z,96461.38
2023-11-20T23:59:03.334Z,96450.91
